Wednesday, November 22, 2017, 11:27 AM EST
Back to Local

KBUF, Greater Buffalo International Airport

Location: Buffalo, NY, United States Lat: 42.933
Local Time: 11:27 AM EST (16:27 GMT) Lon: -78.733
Time Zone: US/Eastern Elev: 725 ft

Show me the last for .
Show Decoded

2017-11-22 10:54 METAR KBUF 221554Z 31009KT 10SM -SN FEW027 BKN041 BKN055 01/M04 A3013 RMK AO2
                 SLP211 PCPN VRY LGT P0000 T00061044 =
2017-11-22 09:54 METAR KBUF 221454Z 30013G22KT 10SM -SN FEW024 BKN037 OVC050 01/M05 A3013 RMK AO2
                 SLP209 PCPN VRY LGT P0000 60000 T00061050 51027 =
2017-11-22 08:54 METAR KBUF 221354Z 29009KT 10SM -SN FEW021 BKN033 OVC055 01/M03 A3010 RMK AO2
                 SNB54 SLP199 PCPN VRY LGT P0000 T00111028 =
2017-11-22 08:01 METAR KBUF 221301Z COR 29009KT 10SM FEW021 BKN039 OVC055 01/M03 A3008 =
2017-11-22 07:54 METAR KBUF 221254Z 30008KT 10SM BKN021 OVC028 01/M03 A3008 RMK AO2 SNB18E28
                 SLP192 P0000 T00111028 $ =
2017-11-22 07:16 METAR KBUF 221216Z 28008KT 10SM FEW021 BKN026 OVC055 01/M02 A3006 RMK AO2
                 T00111017 $ =
2017-11-22 06:54 METAR KBUF 221154Z 29008KT 10SM BKN055 01/M02 A3005 RMK AO2 SLP180 60013 70027
                 T00111017 10033 20011 51026 $ =
2017-11-22 05:54 METAR KBUF 221054Z 30007KT 10SM FEW042 OVC050 02/M02 A3002 RMK AO2 SNE01 SLP172
                 P0000 T00171017 $ =
2017-11-22 05:07 METAR KBUF 221007Z 31008KT 10SM OVC030 02/M01 A3000 RMK AO2 SNE01 P0000
                 T00171006 $ =
2017-11-22 04:54 METAR KBUF 220954Z 31008KT 9SM -SN OVC029 02/00 A3000 RMK AO2 SLP164 P0001
                 T00170000 $ =
2017-11-22 04:29 METAR KBUF 220929Z 28004KT 9SM -SN SCT004 SCT015 OVC024 01/01 A2999 RMK AO2
                 P0001 T00110011 $ =
2017-11-22 04:11 METAR KBUF 220911Z 29004KT 6SM -SN BR OVC004 01/01 A2998 RMK AO2 P0001 T00110006
                 $ =
2017-11-22 03:54 METAR KBUF 220854Z 31005KT 5SM -SN BR BKN005 OVC033 01/01 A2997 RMK AO2 SLP154
                 P0002 60012 T00110006 53019 $ =
2017-11-22 03:13 METAR KBUF 220813Z 31005KT 4SM -SN BR BKN005 BKN011 OVC019 01/01 A2996 RMK AO2
                 P0001 T00110006 $ =
2017-11-22 03:01 METAR KBUF 220801Z 31007KT 4SM -SN BR SCT005 OVC018 01/01 A2996 RMK AO2 P0000
                 T00110006 $ =
2017-11-22 02:54 METAR KBUF 220754Z 31008KT 4SM -SN BR OVC018 01/01 A2996 RMK AO2 RAE31SNB31
                 SLP149 P0005 T00110006 $ =
2017-11-22 01:54 METAR KBUF 220654Z 31009KT 9SM -RA OVC015 02/02 A2993 RMK AO2 SLP139 P0005
                 T00220017 $ =
2017-11-22 00:54 METAR KBUF 220554Z 30010KT 7SM RA FEW012 BKN015 OVC022 03/02 A2991 RMK AO2
                 SLP134 P0005 60014 T00330022 10100 20033 51023 $ =
2017-11-21 23:54 METAR KBUF 220454Z 30008KT 9SM -RA FEW008 BKN015 OVC019 04/03 A2990 RMK AO2
                 SLP130 P0003 T00390028 401220033 $ =
2017-11-21 22:54 METAR KBUF 220354Z 28008KT 6SM -RA BR FEW008 BKN018 OVC029 06/04 A2987 RMK AO2
                 SLP119 P0006 T00560044 $ =
2017-11-21 22:22 METAR KBUF 220322Z 27011KT 5SM RA BR FEW015 BKN028 OVC037 07/04 A2986 RMK AO2
                 P0003 T00670044 $ =
2017-11-21 21:54 METAR KBUF 220254Z 27012KT 9SM -RA BKN038 OVC048 08/04 A2985 RMK AO2 PK WND
                 26029/0206 SLP110 RAB25 P0000 60000 T00780039 53008 $ =
2017-11-21 20:54 METAR KBUF 220154Z 26013G23KT 10SM FEW032 BKN042 OVC050 09/04 A2983 RMK AO2 PK
                 WND 25028/0110 SLP104 T00940039 $ =
2017-11-21 19:54 METAR KBUF 220054Z 25015G24KT 10SM BKN060 BKN080 OVC110 10/03 A2983 RMK AO2
                 SLP105 T01000033 $ =
2017-11-21 18:54 METAR KBUF 212354Z 25012KT 10SM FEW090 BKN150 BKN190 OVC280 09/04 A2982 RMK AO2
                 SLP103 T00940039 10122 20094 51020 $ =
2017-11-21 17:54 METAR KBUF 212254Z 24010KT 10SM FEW120 BKN220 BKN270 10/03 A2980 RMK AO2 PK WND
                 25026/2155 SLP095 T01000033 $ =
2017-11-21 16:54 METAR KBUF 212154Z 24016KT 10SM FEW130 FEW200 SCT270 10/02 A2979 RMK AO2 PK WND
                 24029/2057 SLP092 T01000022 $ =
2017-11-21 15:54 METAR KBUF 212054Z 25020G27KT 10SM FEW140 FEW210 SCT260 11/01 A2976 RMK AO2 PK
                 WND 23033/2008 SLP082 T01110006 53013 $ =
2017-11-21 14:54 METAR KBUF 211954Z 23020G29KT 10SM FEW140 FEW210 SCT260 12/01 A2974 RMK AO2 PK
                 WND 23030/1900 SLP075 T01170006 $ =
2017-11-21 13:54 METAR KBUF 211854Z 23019G27KT 10SM FEW130 SCT200 SCT250 12/M01 A2974 RMK AO2 PK
                 WND 21033/1812 SLP073 T01221006 $ =
2017-11-21 12:54 METAR KBUF 211754Z 22020G32KT 10SM FEW120 SCT200 SCT250 12/M03 A2972 RMK AO2 PK
                 WND 22035/1739 SLP069 T01221033 10122 20050 58007 $ =
2017-11-21 11:54 METAR KBUF 211654Z 22015G28KT 10SM FEW120 BKN200 BKN250 11/M03 A2972 RMK AO2 PK
                 WND 21033/1639 SLP068 T01111033 $ =

Support USWX by starting your Amazon purchase here.